»·PEaware :: N1004E KSNA-KAVX

N1004E :: KSNA-KAVX

FLIGHT INFORMATION

Flight Status: Arrived
Operator: Privately registered:
United States
More flights under this callsign
Pilot: Lance W. (24701)
Aircraft: CESSNA T210 TURBO CENTURION
(T210)
More flights by this aircraft type
Origin: KSNA John Wayne-Orange Co
United States
Destination: KAVX Catalina
United States
More flights between these airports :: More routes between these airports
Route: SLI V21 SXC
File this flight plan on PilotEdge
Remarks: Didn't see TEC route, so unsure of this vs ODP, DV, SID? For I-7 rating
Altitude:
(Current/Filed)
4,000ft
Speed:
(Current/Filed)
150kts
Departed: 30-Nov-19 02:18 PM
Arrived: 30-Nov-19 02:43 PM
Distance/Time
Traveled:
32nm/0:24
Distance/Time
To Go:
Arrived

Flight Plot

Page will automatically refresh every two minutes.


Map Options




Map Legend


Flown Route
Filed Route
Departure Airport
Arrival Airport
Navaid (VOR, NDB)
Fix

Horizontal Profiles

Position Reports

Time Latitude Longitude Heading Altitude Ground
Speed
30-Nov-19 13:59 33.677617 -117.871674 208 60ft 0kts
30-Nov-19 14:00 33.677617 -117.871674 208 60ft 0kts
30-Nov-19 14:01 33.677617 -117.871674 208 60ft 0kts
30-Nov-19 14:02 33.677617 -117.871674 208 60ft 0kts
30-Nov-19 14:03 33.677617 -117.871674 208 60ft 0kts
30-Nov-19 14:04 33.677617 -117.871674 208 60ft 0kts
30-Nov-19 14:05 33.677373 -117.871734 178 60ft 5kts
30-Nov-19 14:06 33.676914 -117.871531 121 60ft 0kts
30-Nov-19 14:07 33.676914 -117.871531 121 60ft 0kts
30-Nov-19 14:08 33.676853 -117.871311 91 60ft 8kts
30-Nov-19 14:09 33.679615 -117.868017 20 60ft 6kts
30-Nov-19 14:10 33.681336 -117.866897 70 60ft 0kts
30-Nov-19 14:11 33.681336 -117.866897 70 60ft 0kts
30-Nov-19 14:12 33.681336 -117.866896 70 60ft 0kts
30-Nov-19 14:13 33.681336 -117.866896 70 60ft 0kts
30-Nov-19 14:14 33.681336 -117.866896 70 60ft 0kts
30-Nov-19 14:15 33.681336 -117.866896 70 60ft 0kts
30-Nov-19 14:16 33.680035 -117.866109 211 60ft 39kts
30-Nov-19 14:17 33.662915 -117.882751 220 1078ft 98kts
30-Nov-19 14:18 33.640916 -117.905723 220 1888ft 107kts
30-Nov-19 14:19 33.618359 -117.929298 220 2751ft 108kts
30-Nov-19 14:20 33.599661 -117.957532 240 3606ft 110kts
30-Nov-19 14:21 33.583343 -117.991982 240 4007ft 137kts
30-Nov-19 14:22 33.563746 -118.032960 239 4000ft 143kts
30-Nov-19 14:23 33.543716 -118.074464 239 4000ft 144kts
30-Nov-19 14:24 33.523542 -118.116059 239 4000ft 144kts
30-Nov-19 14:25 33.503310 -118.157657 239 3999ft 144kts
30-Nov-19 14:26 33.483076 -118.199189 239 3999ft 144kts
30-Nov-19 14:27 33.462808 -118.240731 239 3999ft 144kts
30-Nov-19 14:28 33.442575 -118.282151 239 3999ft 144kts
30-Nov-19 14:29 33.422265 -118.323617 239 3999ft 144kts
30-Nov-19 14:30 33.401923 -118.365141 239 3999ft 144kts
30-Nov-19 14:31 33.394052 -118.407273 322 3995ft 144kts
30-Nov-19 14:32 33.433360 -118.410212 2 4000ft 144kts
30-Nov-19 14:33 33.473565 -118.407663 6 3999ft 144kts
30-Nov-19 14:34 33.505820 -118.433827 318 4000ft 144kts
30-Nov-19 14:35 33.524758 -118.414277 127 3780ft 140kts
30-Nov-19 14:36 33.487943 -118.391713 173 2489ft 157kts
30-Nov-19 14:37 33.455376 -118.403185 189 2563ft 114kts
30-Nov-19 14:38 33.426032 -118.410168 191 2565ft 103kts
30-Nov-19 14:39 33.404740 -118.429727 250 2481ft 103kts
30-Nov-19 14:40 33.389039 -118.442607 102 2502ft 93kts
30-Nov-19 14:41 33.402261 -118.420458 53 1604ft 71kts
30-Nov-19 14:42 33.404765 -118.414985 183 1543ft 0kts
30-Nov-19 14:43 33.404764 -118.414986 181 1543ft 0kts
30-Nov-19 14:44 33.404764 -118.414986 181 1543ft 0kts
30-Nov-19 14:45 33.404764 -118.414986 181 1543ft 0kts
30-Nov-19 14:46 33.404764 -118.414986 181 1543ft 0kts
30-Nov-19 14:47 33.404764 -118.414986 181 1543ft 0kts
30-Nov-19 14:48 33.404764 -118.414986 181 1543ft 0kts
30-Nov-19 14:49 33.404764 -118.414986 181 1543ft 0kts
30-Nov-19 14:50 33.404764 -118.414986 181 1543ft 0kts
30-Nov-19 14:51 33.404764 -118.414986 181 1543ft 0kts
30-Nov-19 14:52 33.404764 -118.414986 181 1543ft 0kts
30-Nov-19 14:53 33.404764 -118.414986 181 1543ft 0kts
30-Nov-19 14:54 33.404764 -118.414986 181 1543ft 0kts
30-Nov-19 14:55 33.404764 -118.414986 181 1543ft 0kts
30-Nov-19 14:56 33.404764 -118.414986 181 1543ft 0kts

Navigation Log

Ident Type
Flight plan parsing failed, navigation log unavailable